sensor_id;sensor_type;location;lat;lon;timestamp;temperature;humidity
45685;DHT22;46836;48.388;16.210;2024-02-23T00:02:19;9.70;99.90
45685;DHT22;46836;48.388;16.210;2024-02-23T00:04:46;9.70;99.90
45685;DHT22;46836;48.388;16.210;2024-02-23T00:07:14;9.70;99.90
45685;DHT22;46836;48.388;16.210;2024-02-23T00:09:41;9.70;99.90
45685;DHT22;46836;48.388;16.210;2024-02-23T00:12:08;9.70;99.90
45685;DHT22;46836;48.388;16.210;2024-02-23T00:14:35;9.70;99.90
45685;DHT22;46836;48.388;16.210;2024-02-23T00:17:03;9.70;99.90
45685;DHT22;46836;48.388;16.210;2024-02-23T00:19:31;9.70;99.90
45685;DHT22;46836;48.388;16.210;2024-02-23T00:21:58;9.70;99.90
45685;DHT22;46836;48.388;16.210;2024-02-23T00:24:31;9.70;99.90
45685;DHT22;46836;48.388;16.210;2024-02-23T00:26:58;9.70;99.90
45685;DHT22;46836;48.388;16.210;2024-02-23T00:29:25;9.70;99.90
45685;DHT22;46836;48.388;16.210;2024-02-23T00:31:52;9.70;99.90
45685;DHT22;46836;48.388;16.210;2024-02-23T00:34:19;9.70;99.90
45685;DHT22;46836;48.388;16.210;2024-02-23T00:36:46;9.70;99.90
45685;DHT22;46836;48.388;16.210;2024-02-23T00:39:13;9.70;99.90
45685;DHT22;46836;48.388;16.210;2024-02-23T00:41:40;9.70;99.90
45685;DHT22;46836;48.388;16.210;2024-02-23T00:44:07;9.70;99.90
45685;DHT22;46836;48.388;16.210;2024-02-23T00:46:34;9.60;99.90
45685;DHT22;46836;48.388;16.210;2024-02-23T00:49:01;9.60;99.90
45685;DHT22;46836;48.388;16.210;2024-02-23T00:51:29;9.60;99.90
45685;DHT22;46836;48.388;16.210;2024-02-23T00:53:56;9.60;99.90
45685;DHT22;46836;48.388;16.210;2024-02-23T00:56:23;9.60;99.90
45685;DHT22;46836;48.388;16.210;2024-02-23T00:59:01;9.60;99.90
45685;DHT22;46836;48.388;16.210;2024-02-23T01:01:29;9.60;99.90
45685;DHT22;46836;48.388;16.210;2024-02-23T01:03:56;9.60;99.90
45685;DHT22;46836;48.388;16.210;2024-02-23T01:06:23;9.60;99.90
45685;DHT22;46836;48.388;16.210;2024-02-23T01:08:52;9.60;99.90
45685;DHT22;46836;48.388;16.210;2024-02-23T01:11:19;9.60;99.90
45685;DHT22;46836;48.388;16.210;2024-02-23T01:13:46;9.60;99.90
45685;DHT22;46836;48.388;16.210;2024-02-23T01:16:13;9.60;99.90
45685;DHT22;46836;48.388;16.210;2024-02-23T01:18:40;9.60;99.90
45685;DHT22;46836;48.388;16.210;2024-02-23T01:21:08;9.60;99.90
45685;DHT22;46836;48.388;16.210;2024-02-23T01:23:35;9.60;99.90
45685;DHT22;46836;48.388;16.210;2024-02-23T01:26:02;9.60;99.90
45685;DHT22;46836;48.388;16.210;2024-02-23T01:28:29;9.60;99.90
45685;DHT22;46836;48.388;16.210;2024-02-23T01:30:56;9.50;99.90
45685;DHT22;46836;48.388;16.210;2024-02-23T01:33:23;9.50;99.90
45685;DHT22;46836;48.388;16.210;2024-02-23T01:35:51;9.50;99.90
45685;DHT22;46836;48.388;16.210;2024-02-23T01:38:18;9.50;99.90
45685;DHT22;46836;48.388;16.210;2024-02-23T01:40:49;9.50;99.90
45685;DHT22;46836;48.388;16.210;2024-02-23T01:43:16;9.50;99.90
45685;DHT22;46836;48.388;16.210;2024-02-23T01:45:43;9.50;99.90
45685;DHT22;46836;48.388;16.210;2024-02-23T01:48:10;9.50;99.90
45685;DHT22;46836;48.388;16.210;2024-02-23T01:50:38;9.40;99.90
45685;DHT22;46836;48.388;16.210;2024-02-23T01:53:06;9.50;99.90
45685;DHT22;46836;48.388;16.210;2024-02-23T01:55:33;9.40;99.90
45685;DHT22;46836;48.388;16.210;2024-02-23T01:58:04;9.40;99.90
45685;DHT22;46836;48.388;16.210;2024-02-23T02:00:35;9.40;99.90
45685;DHT22;46836;48.388;16.210;2024-02-23T02:03:03;9.40;99.90
45685;DHT22;46836;48.388;16.210;2024-02-23T02:05:36;9.40;99.90
45685;DHT22;46836;48.388;16.210;2024-02-23T02:08:04;9.40;99.90
45685;DHT22;46836;48.388;16.210;2024-02-23T02:10:31;9.40;99.90
45685;DHT22;46836;48.388;16.210;2024-02-23T02:13:03;9.30;99.90
45685;DHT22;46836;48.388;16.210;2024-02-23T02:15:31;9.30;99.90
45685;DHT22;46836;48.388;16.210;2024-02-23T02:17:58;9.30;99.90
45685;DHT22;46836;48.388;16.210;2024-02-23T02:20:25;9.30;99.90
45685;DHT22;46836;48.388;16.210;2024-02-23T02:22:54;9.30;99.90
45685;DHT22;46836;48.388;16.210;2024-02-23T02:25:21;9.30;99.90
45685;DHT22;46836;48.388;16.210;2024-02-23T02:27:48;9.20;99.90
45685;DHT22;46836;48.388;16.210;2024-02-23T02:30:15;9.20;99.90
45685;DHT22;46836;48.388;16.210;2024-02-23T02:32:43;9.10;99.90
45685;DHT22;46836;48.388;16.210;2024-02-23T02:35:11;9.10;99.90
45685;DHT22;46836;48.388;16.210;2024-02-23T02:37:39;9.00;99.90
45685;DHT22;46836;48.388;16.210;2024-02-23T02:40:07;9.00;99.90
45685;DHT22;46836;48.388;16.210;2024-02-23T02:42:34;9.00;99.90
45685;DHT22;46836;48.388;16.210;2024-02-23T02:45:01;9.00;99.90
45685;DHT22;46836;48.388;16.210;2024-02-23T02:47:30;9.00;99.90
45685;DHT22;46836;48.388;16.210;2024-02-23T02:49:57;9.00;99.90
45685;DHT22;46836;48.388;16.210;2024-02-23T02:52:24;9.00;99.90
45685;DHT22;46836;48.388;16.210;2024-02-23T02:54:51;9.00;99.90
45685;DHT22;46836;48.388;16.210;2024-02-23T02:57:19;9.10;99.90
45685;DHT22;46836;48.388;16.210;2024-02-23T02:59:46;9.10;99.90
45685;DHT22;46836;48.388;16.210;2024-02-23T03:02:13;9.10;99.90
45685;DHT22;46836;48.388;16.210;2024-02-23T03:04:47;9.10;99.90
45685;DHT22;46836;48.388;16.210;2024-02-23T03:07:15;9.10;99.90
45685;DHT22;46836;48.388;16.210;2024-02-23T03:09:43;9.10;99.90
45685;DHT22;46836;48.388;16.210;2024-02-23T03:12:11;9.10;99.90
45685;DHT22;46836;48.388;16.210;2024-02-23T03:14:38;9.00;99.90
45685;DHT22;46836;48.388;16.210;2024-02-23T03:17:08;9.00;99.90
45685;DHT22;46836;48.388;16.210;2024-02-23T03:19:37;8.90;99.90
45685;DHT22;46836;48.388;16.210;2024-02-23T03:22:05;8.80;99.90
45685;DHT22;46836;48.388;16.210;2024-02-23T03:24:32;8.70;99.90
45685;DHT22;46836;48.388;16.210;2024-02-23T03:26:59;8.60;99.90
45685;DHT22;46836;48.388;16.210;2024-02-23T03:29:27;8.50;99.90
45685;DHT22;46836;48.388;16.210;2024-02-23T03:31:57;8.50;99.90
45685;DHT22;46836;48.388;16.210;2024-02-23T03:34:25;8.40;99.90
45685;DHT22;46836;48.388;16.210;2024-02-23T03:36:52;8.40;99.90
45685;DHT22;46836;48.388;16.210;2024-02-23T03:39:19;8.40;99.90
45685;DHT22;46836;48.388;16.210;2024-02-23T03:41:46;8.40;99.90
45685;DHT22;46836;48.388;16.210;2024-02-23T03:44:13;8.40;99.90
45685;DHT22;46836;48.388;16.210;2024-02-23T03:46:40;8.40;99.90
45685;DHT22;46836;48.388;16.210;2024-02-23T03:49:08;8.40;99.90
45685;DHT22;46836;48.388;16.210;2024-02-23T03:51:35;8.40;99.90
45685;DHT22;46836;48.388;16.210;2024-02-23T03:54:06;8.40;99.90
45685;DHT22;46836;48.388;16.210;2024-02-23T03:56:40;8.50;99.90
45685;DHT22;46836;48.388;16.210;2024-02-23T03:59:09;8.50;99.90
45685;DHT22;46836;48.388;16.210;2024-02-23T04:01:38;8.50;99.90
45685;DHT22;46836;48.388;16.210;2024-02-23T04:04:06;8.50;99.90
45685;DHT22;46836;48.388;16.210;2024-02-23T04:06:34;8.50;99.90
45685;DHT22;46836;48.388;16.210;2024-02-23T04:09:02;8.50;99.90
45685;DHT22;46836;48.388;16.210;2024-02-23T04:11:32;8.50;99.90
45685;DHT22;46836;48.388;16.210;2024-02-23T04:14:00;8.40;99.90
45685;DHT22;46836;48.388;16.210;2024-02-23T04:16:28;8.50;99.90
45685;DHT22;46836;48.388;16.210;2024-02-23T04:18:55;8.50;99.90
45685;DHT22;46836;48.388;16.210;2024-02-23T04:21:23;8.50;99.90
45685;DHT22;46836;48.388;16.210;2024-02-23T04:23:51;8.50;99.90
45685;DHT22;46836;48.388;16.210;2024-02-23T04:26:18;8.50;99.90
45685;DHT22;46836;48.388;16.210;2024-02-23T04:28:45;8.50;99.90
45685;DHT22;46836;48.388;16.210;2024-02-23T04:31:12;8.40;99.90
45685;DHT22;46836;48.388;16.210;2024-02-23T04:33:39;8.40;99.90
45685;DHT22;46836;48.388;16.210;2024-02-23T04:36:07;8.50;99.90
45685;DHT22;46836;48.388;16.210;2024-02-23T04:38:34;8.50;99.90
45685;DHT22;46836;48.388;16.210;2024-02-23T04:41:04;8.50;99.90
45685;DHT22;46836;48.388;16.210;2024-02-23T04:43:32;8.50;99.90
45685;DHT22;46836;48.388;16.210;2024-02-23T04:45:59;8.50;99.90
45685;DHT22;46836;48.388;16.210;2024-02-23T04:48:26;8.50;99.90
45685;DHT22;46836;48.388;16.210;2024-02-23T04:50:53;8.60;99.90
45685;DHT22;46836;48.388;16.210;2024-02-23T04:53:20;8.60;99.90
45685;DHT22;46836;48.388;16.210;2024-02-23T04:55:48;8.60;99.90
45685;DHT22;46836;48.388;16.210;2024-02-23T04:58:15;8.70;99.90
45685;DHT22;46836;48.388;16.210;2024-02-23T05:00:42;8.70;99.90
45685;DHT22;46836;48.388;16.210;2024-02-23T05:03:09;8.70;99.90
45685;DHT22;46836;48.388;16.210;2024-02-23T05:05:38;8.70;99.90
45685;DHT22;46836;48.388;16.210;2024-02-23T05:08:07;8.70;99.90
45685;DHT22;46836;48.388;16.210;2024-02-23T05:10:34;8.70;99.90
45685;DHT22;46836;48.388;16.210;2024-02-23T05:13:01;8.80;99.90
45685;DHT22;46836;48.388;16.210;2024-02-23T05:15:28;8.80;99.90
45685;DHT22;46836;48.388;16.210;2024-02-23T05:17:55;8.80;99.90
45685;DHT22;46836;48.388;16.210;2024-02-23T05:20:22;8.80;99.90
45685;DHT22;46836;48.388;16.210;2024-02-23T05:22:49;8.90;99.90
45685;DHT22;46836;48.388;16.210;2024-02-23T05:25:16;8.90;99.90
45685;DHT22;46836;48.388;16.210;2024-02-23T05:27:43;8.90;99.90
45685;DHT22;46836;48.388;16.210;2024-02-23T05:30:11;8.90;99.90
45685;DHT22;46836;48.388;16.210;2024-02-23T05:32:39;8.90;99.90
45685;DHT22;46836;48.388;16.210;2024-02-23T05:35:06;8.90;99.90
45685;DHT22;46836;48.388;16.210;2024-02-23T05:37:34;8.90;99.90
45685;DHT22;46836;48.388;16.210;2024-02-23T05:40:01;8.90;99.90
45685;DHT22;46836;48.388;16.210;2024-02-23T05:42:33;8.90;99.90
45685;DHT22;46836;48.388;16.210;2024-02-23T05:45:06;8.90;99.90
45685;DHT22;46836;48.388;16.210;2024-02-23T05:47:36;8.90;99.90
45685;DHT22;46836;48.388;16.210;2024-02-23T05:50:05;8.90;99.90
45685;DHT22;46836;48.388;16.210;2024-02-23T05:52:32;8.90;99.90
45685;DHT22;46836;48.388;16.210;2024-02-23T05:55:00;8.90;99.90
45685;DHT22;46836;48.388;16.210;2024-02-23T05:57:27;8.90;99.90
45685;DHT22;46836;48.388;16.210;2024-02-23T05:59:55;9.00;99.90
45685;DHT22;46836;48.388;16.210;2024-02-23T06:02:22;9.00;99.90
45685;DHT22;46836;48.388;16.210;2024-02-23T06:04:49;9.00;99.90
45685;DHT22;46836;48.388;16.210;2024-02-23T06:07:17;9.00;99.90
45685;DHT22;46836;48.388;16.210;2024-02-23T06:09:44;9.00;99.90
45685;DHT22;46836;48.388;16.210;2024-02-23T06:12:11;9.00;99.90
45685;DHT22;46836;48.388;16.210;2024-02-23T06:14:38;9.00;99.90
45685;DHT22;46836;48.388;16.210;2024-02-23T06:17:06;9.00;99.90
45685;DHT22;46836;48.388;16.210;2024-02-23T06:19:35;9.00;99.90
45685;DHT22;46836;48.388;16.210;2024-02-23T06:22:02;9.00;99.90
45685;DHT22;46836;48.388;16.210;2024-02-23T06:24:29;9.00;99.90
45685;DHT22;46836;48.388;16.210;2024-02-23T06:26:56;9.10;99.90
45685;DHT22;46836;48.388;16.210;2024-02-23T06:29:25;9.10;99.90
45685;DHT22;46836;48.388;16.210;2024-02-23T06:31:52;9.10;99.90
45685;DHT22;46836;48.388;16.210;2024-02-23T06:34:21;9.00;99.90
45685;DHT22;46836;48.388;16.210;2024-02-23T06:36:48;9.10;99.90
45685;DHT22;46836;48.388;16.210;2024-02-23T06:39:15;9.10;99.90
45685;DHT22;46836;48.388;16.210;2024-02-23T06:41:45;9.10;99.90
45685;DHT22;46836;48.388;16.210;2024-02-23T06:44:12;9.10;99.90
45685;DHT22;46836;48.388;16.210;2024-02-23T06:46:40;9.20;99.90
45685;DHT22;46836;48.388;16.210;2024-02-23T06:49:07;9.10;99.90
45685;DHT22;46836;48.388;16.210;2024-02-23T06:51:35;9.20;99.90
45685;DHT22;46836;48.388;16.210;2024-02-23T06:54:02;9.20;99.90
45685;DHT22;46836;48.388;16.210;2024-02-23T06:56:30;9.20;99.90
45685;DHT22;46836;48.388;16.210;2024-02-23T06:58:57;9.30;99.90
45685;DHT22;46836;48.388;16.210;2024-02-23T07:01:25;9.30;99.90
45685;DHT22;46836;48.388;16.210;2024-02-23T07:03:52;9.40;99.90
45685;DHT22;46836;48.388;16.210;2024-02-23T07:06:19;9.40;99.90
45685;DHT22;46836;48.388;16.210;2024-02-23T07:08:47;9.40;99.90
45685;DHT22;46836;48.388;16.210;2024-02-23T07:11:14;9.50;99.90
45685;DHT22;46836;48.388;16.210;2024-02-23T07:13:45;9.50;99.90
45685;DHT22;46836;48.388;16.210;2024-02-23T07:16:12;9.50;99.90
45685;DHT22;46836;48.388;16.210;2024-02-23T07:18:40;9.60;99.90
45685;DHT22;46836;48.388;16.210;2024-02-23T07:21:08;9.70;99.90
45685;DHT22;46836;48.388;16.210;2024-02-23T07:23:35;9.70;99.90
45685;DHT22;46836;48.388;16.210;2024-02-23T07:26:02;9.80;99.90
45685;DHT22;46836;48.388;16.210;2024-02-23T07:28:29;9.90;99.90
45685;DHT22;46836;48.388;16.210;2024-02-23T07:30:57;9.90;99.90
45685;DHT22;46836;48.388;16.210;2024-02-23T07:33:24;9.90;99.90
45685;DHT22;46836;48.388;16.210;2024-02-23T07:35:51;9.90;99.90
45685;DHT22;46836;48.388;16.210;2024-02-23T07:38:18;9.90;99.90
45685;DHT22;46836;48.388;16.210;2024-02-23T07:40:46;9.90;99.90
45685;DHT22;46836;48.388;16.210;2024-02-23T07:43:13;9.80;99.90
45685;DHT22;46836;48.388;16.210;2024-02-23T07:45:40;9.80;99.90
45685;DHT22;46836;48.388;16.210;2024-02-23T07:48:07;9.80;99.90
45685;DHT22;46836;48.388;16.210;2024-02-23T07:50:35;9.70;99.90
45685;DHT22;46836;48.388;16.210;2024-02-23T07:53:03;9.70;99.90
45685;DHT22;46836;48.388;16.210;2024-02-23T07:55:31;9.70;99.90
45685;DHT22;46836;48.388;16.210;2024-02-23T07:57:58;9.70;99.90
45685;DHT22;46836;48.388;16.210;2024-02-23T08:00:28;9.70;99.90
45685;DHT22;46836;48.388;16.210;2024-02-23T08:02:56;9.70;99.90
45685;DHT22;46836;48.388;16.210;2024-02-23T08:05:27;9.70;99.90
45685;DHT22;46836;48.388;16.210;2024-02-23T08:07:54;9.70;99.90
45685;DHT22;46836;48.388;16.210;2024-02-23T08:10:21;9.60;99.90
45685;DHT22;46836;48.388;16.210;2024-02-23T08:12:48;9.60;99.90
45685;DHT22;46836;48.388;16.210;2024-02-23T08:15:15;9.60;99.90
45685;DHT22;46836;48.388;16.210;2024-02-23T08:17:42;9.60;99.90
45685;DHT22;46836;48.388;16.210;2024-02-23T08:20:10;9.60;99.90
45685;DHT22;46836;48.388;16.210;2024-02-23T08:22:38;9.60;99.90
45685;DHT22;46836;48.388;16.210;2024-02-23T08:25:05;9.60;99.90
45685;DHT22;46836;48.388;16.210;2024-02-23T08:27:32;9.70;99.90
45685;DHT22;46836;48.388;16.210;2024-02-23T08:29:59;9.70;99.90
45685;DHT22;46836;48.388;16.210;2024-02-23T08:32:26;9.70;99.90
45685;DHT22;46836;48.388;16.210;2024-02-23T08:34:53;9.70;99.90
45685;DHT22;46836;48.388;16.210;2024-02-23T08:37:26;9.60;99.90
45685;DHT22;46836;48.388;16.210;2024-02-23T08:39:53;9.60;99.90
45685;DHT22;46836;48.388;16.210;2024-02-23T08:42:21;9.60;99.90
45685;DHT22;46836;48.388;16.210;2024-02-23T08:44:48;9.60;99.90
45685;DHT22;46836;48.388;16.210;2024-02-23T08:47:15;9.60;99.90
45685;DHT22;46836;48.388;16.210;2024-02-23T08:49:42;9.60;99.90
45685;DHT22;46836;48.388;16.210;2024-02-23T08:52:09;9.70;99.90
45685;DHT22;46836;48.388;16.210;2024-02-23T08:54:36;9.70;99.90
45685;DHT22;46836;48.388;16.210;2024-02-23T08:57:04;9.60;99.90
45685;DHT22;46836;48.388;16.210;2024-02-23T08:59:31;9.60;99.90
45685;DHT22;46836;48.388;16.210;2024-02-23T09:01:58;9.70;99.90
45685;DHT22;46836;48.388;16.210;2024-02-23T09:04:26;9.70;99.90
45685;DHT22;46836;48.388;16.210;2024-02-23T09:06:53;9.70;99.90
45685;DHT22;46836;48.388;16.210;2024-02-23T09:09:20;9.70;99.90
45685;DHT22;46836;48.388;16.210;2024-02-23T09:11:48;9.70;99.90
45685;DHT22;46836;48.388;16.210;2024-02-23T09:14:16;9.70;99.90
45685;DHT22;46836;48.388;16.210;2024-02-23T09:16:43;9.80;99.90
45685;DHT22;46836;48.388;16.210;2024-02-23T09:19:10;9.80;99.90
45685;DHT22;46836;48.388;16.210;2024-02-23T09:21:37;9.80;99.90
45685;DHT22;46836;48.388;16.210;2024-02-23T09:24:05;9.90;99.90
45685;DHT22;46836;48.388;16.210;2024-02-23T09:26:32;9.90;99.90
45685;DHT22;46836;48.388;16.210;2024-02-23T09:28:59;10.00;99.90
45685;DHT22;46836;48.388;16.210;2024-02-23T09:31:26;10.00;99.90
45685;DHT22;46836;48.388;16.210;2024-02-23T09:33:55;10.10;99.90
45685;DHT22;46836;48.388;16.210;2024-02-23T09:36:23;10.20;99.90
45685;DHT22;46836;48.388;16.210;2024-02-23T09:38:50;10.30;99.90
45685;DHT22;46836;48.388;16.210;2024-02-23T09:41:22;10.40;99.90
45685;DHT22;46836;48.388;16.210;2024-02-23T09:43:50;10.50;99.90
45685;DHT22;46836;48.388;16.210;2024-02-23T09:46:18;10.60;99.90
45685;DHT22;46836;48.388;16.210;2024-02-23T09:48:45;10.70;99.90
45685;DHT22;46836;48.388;16.210;2024-02-23T09:51:18;10.70;99.90
45685;DHT22;46836;48.388;16.210;2024-02-23T09:53:45;10.80;99.90
45685;DHT22;46836;48.388;16.210;2024-02-23T09:56:14;10.80;99.90
45685;DHT22;46836;48.388;16.210;2024-02-23T09:58:44;10.90;99.90
45685;DHT22;46836;48.388;16.210;2024-02-23T10:01:22;10.80;99.90
45685;DHT22;46836;48.388;16.210;2024-02-23T10:03:55;10.80;99.90
45685;DHT22;46836;48.388;16.210;2024-02-23T10:06:27;10.80;99.90
45685;DHT22;46836;48.388;16.210;2024-02-23T10:08:54;10.80;99.90
45685;DHT22;46836;48.388;16.210;2024-02-23T10:11:23;10.80;99.90
45685;DHT22;46836;48.388;16.210;2024-02-23T10:13:51;10.90;99.90
45685;DHT22;46836;48.388;16.210;2024-02-23T10:16:22;10.90;99.90
45685;DHT22;46836;48.388;16.210;2024-02-23T10:18:49;10.90;99.90
45685;DHT22;46836;48.388;16.210;2024-02-23T10:21:17;10.90;99.90
45685;DHT22;46836;48.388;16.210;2024-02-23T10:23:44;10.90;99.90
45685;DHT22;46836;48.388;16.210;2024-02-23T10:26:12;10.90;99.90
45685;DHT22;46836;48.388;16.210;2024-02-23T10:28:39;11.00;99.90
45685;DHT22;46836;48.388;16.210;2024-02-23T10:31:06;11.00;99.90
45685;DHT22;46836;48.388;16.210;2024-02-23T10:33:38;11.00;99.90
45685;DHT22;46836;48.388;16.210;2024-02-23T10:36:07;11.00;99.90
45685;DHT22;46836;48.388;16.210;2024-02-23T10:38:38;11.10;99.90
45685;DHT22;46836;48.388;16.210;2024-02-23T10:41:12;11.10;99.90
45685;DHT22;46836;48.388;16.210;2024-02-23T10:43:48;11.20;99.90
45685;DHT22;46836;48.388;16.210;2024-02-23T10:46:16;11.20;99.90
45685;DHT22;46836;48.388;16.210;2024-02-23T10:48:44;11.20;99.90
45685;DHT22;46836;48.388;16.210;2024-02-23T10:51:14;11.30;99.90
45685;DHT22;46836;48.388;16.210;2024-02-23T10:53:48;11.40;99.90
45685;DHT22;46836;48.388;16.210;2024-02-23T10:56:15;11.40;99.90
45685;DHT22;46836;48.388;16.210;2024-02-23T10:58:43;11.50;99.90
45685;DHT22;46836;48.388;16.210;2024-02-23T11:01:11;11.60;99.90
45685;DHT22;46836;48.388;16.210;2024-02-23T11:03:42;11.70;99.90
45685;DHT22;46836;48.388;16.210;2024-02-23T11:06:11;11.70;99.90
45685;DHT22;46836;48.388;16.210;2024-02-23T11:08:39;11.70;99.90
45685;DHT22;46836;48.388;16.210;2024-02-23T11:11:11;11.70;99.90
45685;DHT22;46836;48.388;16.210;2024-02-23T11:13:39;11.80;99.90
45685;DHT22;46836;48.388;16.210;2024-02-23T11:16:08;11.80;99.90
45685;DHT22;46836;48.388;16.210;2024-02-23T11:18:41;11.70;99.90
45685;DHT22;46836;48.388;16.210;2024-02-23T11:21:09;11.70;99.90
45685;DHT22;46836;48.388;16.210;2024-02-23T11:23:41;11.70;99.90
45685;DHT22;46836;48.388;16.210;2024-02-23T11:26:10;11.70;99.90
45685;DHT22;46836;48.388;16.210;2024-02-23T11:31:14;11.60;99.90
45685;DHT22;46836;48.388;16.210;2024-02-23T11:33:54;11.50;99.90
45685;DHT22;46836;48.388;16.210;2024-02-23T11:36:42;11.40;99.90
45685;DHT22;46836;48.388;16.210;2024-02-23T11:39:10;11.40;99.90
45685;DHT22;46836;48.388;16.210;2024-02-23T11:41:39;11.50;99.90
45685;DHT22;46836;48.388;16.210;2024-02-23T11:44:08;11.50;99.90
45685;DHT22;46836;48.388;16.210;2024-02-23T11:46:36;11.50;99.90
45685;DHT22;46836;48.388;16.210;2024-02-23T11:49:03;11.50;99.90
45685;DHT22;46836;48.388;16.210;2024-02-23T11:51:30;11.50;99.90
45685;DHT22;46836;48.388;16.210;2024-02-23T11:53:57;11.50;99.90
45685;DHT22;46836;48.388;16.210;2024-02-23T11:56:27;11.60;99.90
45685;DHT22;46836;48.388;16.210;2024-02-23T11:58:55;11.60;99.90
45685;DHT22;46836;48.388;16.210;2024-02-23T12:01:22;11.60;99.90
45685;DHT22;46836;48.388;16.210;2024-02-23T12:03:49;11.50;99.90
45685;DHT22;46836;48.388;16.210;2024-02-23T12:06:17;11.50;99.90
45685;DHT22;46836;48.388;16.210;2024-02-23T12:08:44;11.50;99.90
45685;DHT22;46836;48.388;16.210;2024-02-23T12:11:14;11.50;99.90
45685;DHT22;46836;48.388;16.210;2024-02-23T12:13:41;11.50;99.90
45685;DHT22;46836;48.388;16.210;2024-02-23T12:16:08;11.60;99.90
45685;DHT22;46836;48.388;16.210;2024-02-23T12:18:36;11.60;99.90
45685;DHT22;46836;48.388;16.210;2024-02-23T12:21:05;11.70;99.90
45685;DHT22;46836;48.388;16.210;2024-02-23T12:23:44;11.70;99.90
45685;DHT22;46836;48.388;16.210;2024-02-23T12:26:19;11.80;99.90
45685;DHT22;46836;48.388;16.210;2024-02-23T12:28:46;11.70;99.90
45685;DHT22;46836;48.388;16.210;2024-02-23T12:31:13;11.70;99.90
45685;DHT22;46836;48.388;16.210;2024-02-23T12:33:41;11.60;99.90
45685;DHT22;46836;48.388;16.210;2024-02-23T12:36:10;11.70;99.90
45685;DHT22;46836;48.388;16.210;2024-02-23T12:38:37;11.60;99.90
45685;DHT22;46836;48.388;16.210;2024-02-23T12:41:04;11.50;99.90
45685;DHT22;46836;48.388;16.210;2024-02-23T12:43:32;11.50;99.90
45685;DHT22;46836;48.388;16.210;2024-02-23T12:45:59;11.40;99.90
45685;DHT22;46836;48.388;16.210;2024-02-23T12:48:28;11.30;99.90
45685;DHT22;46836;48.388;16.210;2024-02-23T12:50:55;11.30;99.90
45685;DHT22;46836;48.388;16.210;2024-02-23T12:56:02;11.20;99.90
45685;DHT22;46836;48.388;16.210;2024-02-23T12:58:30;11.20;99.90
45685;DHT22;46836;48.388;16.210;2024-02-23T13:00:58;11.20;99.90
45685;DHT22;46836;48.388;16.210;2024-02-23T13:03:26;11.20;99.90
45685;DHT22;46836;48.388;16.210;2024-02-23T13:05:55;11.20;99.90
45685;DHT22;46836;48.388;16.210;2024-02-23T13:08:23;11.30;99.90
45685;DHT22;46836;48.388;16.210;2024-02-23T13:10:52;11.30;99.90
45685;DHT22;46836;48.388;16.210;2024-02-23T13:13:20;11.20;99.90
45685;DHT22;46836;48.388;16.210;2024-02-23T13:15:48;11.20;99.90
45685;DHT22;46836;48.388;16.210;2024-02-23T13:18:16;11.10;99.90
45685;DHT22;46836;48.388;16.210;2024-02-23T13:20:43;10.90;99.90
45685;DHT22;46836;48.388;16.210;2024-02-23T13:23:11;10.90;99.90
45685;DHT22;46836;48.388;16.210;2024-02-23T13:25:39;10.80;99.90
45685;DHT22;46836;48.388;16.210;2024-02-23T13:28:07;10.80;99.90
45685;DHT22;46836;48.388;16.210;2024-02-23T13:30:36;10.70;99.90
45685;DHT22;46836;48.388;16.210;2024-02-23T13:33:04;10.70;99.90
45685;DHT22;46836;48.388;16.210;2024-02-23T13:35:32;10.60;99.90
45685;DHT22;46836;48.388;16.210;2024-02-23T13:37:59;10.50;99.90
45685;DHT22;46836;48.388;16.210;2024-02-23T13:40:26;10.50;99.90
45685;DHT22;46836;48.388;16.210;2024-02-23T13:42:53;10.40;99.90
45685;DHT22;46836;48.388;16.210;2024-02-23T13:45:20;10.30;99.90
45685;DHT22;46836;48.388;16.210;2024-02-23T13:48:00;10.30;99.90
45685;DHT22;46836;48.388;16.210;2024-02-23T13:50:28;10.30;99.90
45685;DHT22;46836;48.388;16.210;2024-02-23T13:52:55;10.20;99.90
45685;DHT22;46836;48.388;16.210;2024-02-23T13:55:23;10.20;99.90
45685;DHT22;46836;48.388;16.210;2024-02-23T13:57:50;10.10;99.90
45685;DHT22;46836;48.388;16.210;2024-02-23T14:00:18;10.10;99.90
45685;DHT22;46836;48.388;16.210;2024-02-23T14:02:47;10.10;99.90
45685;DHT22;46836;48.388;16.210;2024-02-23T14:05:15;10.10;99.90
45685;DHT22;46836;48.388;16.210;2024-02-23T14:07:45;10.10;99.90
45685;DHT22;46836;48.388;16.210;2024-02-23T14:10:12;10.00;99.90
45685;DHT22;46836;48.388;16.210;2024-02-23T14:12:40;10.00;99.90
45685;DHT22;46836;48.388;16.210;2024-02-23T14:15:08;10.00;99.90
45685;DHT22;46836;48.388;16.210;2024-02-23T14:17:36;10.00;99.90
45685;DHT22;46836;48.388;16.210;2024-02-23T14:20:03;10.00;99.90
45685;DHT22;46836;48.388;16.210;2024-02-23T14:22:31;10.00;99.90
45685;DHT22;46836;48.388;16.210;2024-02-23T14:24:58;10.10;99.90
45685;DHT22;46836;48.388;16.210;2024-02-23T14:27:26;10.10;99.90
45685;DHT22;46836;48.388;16.210;2024-02-23T14:29:58;10.10;99.90
45685;DHT22;46836;48.388;16.210;2024-02-23T14:32:25;10.10;99.90
45685;DHT22;46836;48.388;16.210;2024-02-23T14:34:52;10.10;99.90
45685;DHT22;46836;48.388;16.210;2024-02-23T14:37:20;10.10;99.90
45685;DHT22;46836;48.388;16.210;2024-02-23T14:39:47;10.10;99.90
45685;DHT22;46836;48.388;16.210;2024-02-23T14:42:16;10.10;99.90
45685;DHT22;46836;48.388;16.210;2024-02-23T14:44:43;10.10;99.90
45685;DHT22;46836;48.388;16.210;2024-02-23T14:47:10;10.10;99.90
45685;DHT22;46836;48.388;16.210;2024-02-23T14:49:37;10.10;99.90
45685;DHT22;46836;48.388;16.210;2024-02-23T14:52:05;10.10;99.90
45685;DHT22;46836;48.388;16.210;2024-02-23T14:54:32;10.10;99.90
45685;DHT22;46836;48.388;16.210;2024-02-23T14:57:00;10.10;99.90
45685;DHT22;46836;48.388;16.210;2024-02-23T14:59:27;10.10;99.90
45685;DHT22;46836;48.388;16.210;2024-02-23T15:01:54;10.10;99.90
45685;DHT22;46836;48.388;16.210;2024-02-23T15:04:21;10.10;99.90
45685;DHT22;46836;48.388;16.210;2024-02-23T15:06:48;10.10;99.90
45685;DHT22;46836;48.388;16.210;2024-02-23T15:09:15;10.20;99.90
45685;DHT22;46836;48.388;16.210;2024-02-23T15:11:42;10.20;99.90
45685;DHT22;46836;48.388;16.210;2024-02-23T15:14:10;10.20;99.90
45685;DHT22;46836;48.388;16.210;2024-02-23T15:16:37;10.20;99.90
45685;DHT22;46836;48.388;16.210;2024-02-23T15:19:04;10.20;99.90
45685;DHT22;46836;48.388;16.210;2024-02-23T15:21:34;10.20;99.90
45685;DHT22;46836;48.388;16.210;2024-02-23T15:24:07;10.20;99.90
45685;DHT22;46836;48.388;16.210;2024-02-23T15:26:34;10.20;99.90
45685;DHT22;46836;48.388;16.210;2024-02-23T15:29:01;10.20;99.90
45685;DHT22;46836;48.388;16.210;2024-02-23T15:31:30;10.10;99.90
45685;DHT22;46836;48.388;16.210;2024-02-23T15:33:57;10.10;99.90
45685;DHT22;46836;48.388;16.210;2024-02-23T15:36:27;10.10;99.90